createdAt,value
2023-11-24T00:00:21.850Z,0.70
2023-11-24T00:03:44.683Z,0.73
2023-11-24T00:07:08.820Z,0.69
2023-11-24T00:10:31.281Z,0.74
2023-11-24T00:13:53.655Z,0.79
2023-11-24T00:17:16.221Z,0.73
2023-11-24T00:20:38.746Z,0.66
2023-11-24T00:24:05.422Z,0.97
2023-11-24T00:27:29.089Z,0.60
2023-11-24T00:30:51.603Z,0.29
2023-11-24T00:34:14.138Z,0.09
2023-11-24T00:37:37.116Z,0.12
2023-11-24T00:41:01.472Z,0.09
2023-11-24T00:44:24.018Z,0.33
2023-11-24T00:47:46.543Z,-0.06
2023-11-24T00:51:08.957Z,0.04
2023-11-24T00:54:31.398Z,-0.07
2023-11-24T00:57:55.276Z,-0.13
2023-11-24T01:01:20.487Z,-0.19
2023-11-24T01:04:43.211Z,0.23
2023-11-24T01:08:05.953Z,0.09
2023-11-24T01:11:28.691Z,0.09
2023-11-24T01:14:52.286Z,-0.08
2023-11-24T01:18:15.135Z,-0.01
2023-11-24T01:21:37.349Z,-0.20
2023-11-24T01:24:59.859Z,0.11
2023-11-24T01:28:22.242Z,0.08
2023-11-24T01:31:46.106Z,0.11
2023-11-24T01:35:10.810Z,0.16
2023-11-24T01:38:33.568Z,0.63
2023-11-24T01:41:56.256Z,0.47
2023-11-24T01:45:18.762Z,0.61
2023-11-24T01:48:42.625Z,0.55
2023-11-24T01:52:06.423Z,0.65
2023-11-24T01:55:28.824Z,0.73
2023-11-24T01:58:51.603Z,0.37
2023-11-24T02:02:16.284Z,0.05
2023-11-24T02:05:40.568Z,0.23
2023-11-24T02:09:03.151Z,0.16
2023-11-24T02:12:25.667Z,0.13
2023-11-24T02:15:48.221Z,0.10
2023-11-24T02:19:11.706Z,0.20
2023-11-24T02:22:40.495Z,0.53
2023-11-24T02:26:03.553Z,0.38
2023-11-24T02:29:26.234Z,0.41
2023-11-24T02:32:48.969Z,0.50
2023-11-24T02:36:18.804Z,0.82
2023-11-24T02:39:42.869Z,0.94
2023-11-24T02:43:05.240Z,0.70
2023-11-24T02:46:27.747Z,0.38
2023-11-24T02:49:50.340Z,0.47
2023-11-24T02:53:13.072Z,0.96
2023-11-24T02:56:37.303Z,1.14
2023-11-24T03:00:00.342Z,0.86
2023-11-24T03:03:23.892Z,1.22
2023-11-24T03:06:46.408Z,1.06
2023-11-24T03:10:10.337Z,0.93
2023-11-24T03:13:35.319Z,1.10
2023-11-24T03:16:58.146Z,1.44
2023-11-24T03:20:22.513Z,1.50
2023-11-24T03:23:46.405Z,1.65
2023-11-24T03:27:08.604Z,1.76
2023-11-24T03:30:32.678Z,1.65
2023-11-24T03:33:54.883Z,1.95
2023-11-24T03:37:17.417Z,2.18
2023-11-24T03:40:39.886Z,2.21
2023-11-24T03:44:02.348Z,2.31
2023-11-24T03:47:26.369Z,2.19
2023-11-24T03:50:50.142Z,2.19
2023-11-24T03:54:12.365Z,1.91
2023-11-24T03:57:34.868Z,2.13
2023-11-24T04:00:57.503Z,2.08
2023-11-24T04:04:22.102Z,1.89
2023-11-24T04:07:48.430Z,2.04
2023-11-24T04:11:11.780Z,1.93
2023-11-24T04:14:34.119Z,2.06
2023-11-24T04:17:57.077Z,2.02
2023-11-24T04:21:20.857Z,2.16
2023-11-24T04:24:43.542Z,2.20
2023-11-24T04:28:06.504Z,2.61
2023-11-24T04:31:29.298Z,2.18
2023-11-24T04:34:51.895Z,2.25
2023-11-24T04:38:16.161Z,2.21
2023-11-24T04:41:38.660Z,2.20
2023-11-24T04:45:01.132Z,2.01
2023-11-24T04:48:24.419Z,2.19
2023-11-24T04:51:47.419Z,2.07
2023-11-24T04:55:11.318Z,1.85
2023-11-24T04:58:33.812Z,2.02
2023-11-24T05:01:56.462Z,2.03
2023-11-24T05:05:19.259Z,1.79
2023-11-24T05:08:41.756Z,1.97
2023-11-24T05:12:06.348Z,2.02
2023-11-24T05:15:28.565Z,2.00
2023-11-24T05:18:51.127Z,1.67
2023-11-24T05:22:13.212Z,1.83
2023-11-24T05:25:35.600Z,1.83
2023-11-24T05:28:59.285Z,1.92
2023-11-24T05:32:21.948Z,2.20
2023-11-24T05:35:44.339Z,2.28
2023-11-24T05:39:08.722Z,2.21
2023-11-24T05:42:31.152Z,1.72
2023-11-24T05:45:57.875Z,1.75
2023-11-24T05:49:20.040Z,1.88
2023-11-24T05:52:42.662Z,1.88
2023-11-24T05:56:07.985Z,1.77
2023-11-24T05:59:31.774Z,1.88
2023-11-24T06:02:55.695Z,2.09
2023-11-24T06:06:19.279Z,1.86
2023-11-24T06:09:41.863Z,1.83
2023-11-24T06:13:04.688Z,1.72
2023-11-24T06:16:26.827Z,1.64
2023-11-24T06:19:50.606Z,1.66
2023-11-24T06:23:12.950Z,1.75
2023-11-24T06:26:35.451Z,1.64
2023-11-24T06:29:57.883Z,1.69
2023-11-24T06:33:22.455Z,1.82
2023-11-24T06:36:46.698Z,1.76
2023-11-24T06:40:12.794Z,1.97
2023-11-24T06:43:35.668Z,1.90
2023-11-24T06:46:58.845Z,1.79
2023-11-24T06:50:21.393Z,1.99
2023-11-24T06:53:45.350Z,2.09
2023-11-24T06:57:08.433Z,1.98
2023-11-24T07:00:30.979Z,2.20
2023-11-24T07:03:53.644Z,2.47
2023-11-24T07:07:17.024Z,2.42
2023-11-24T07:10:40.828Z,2.38
2023-11-24T07:14:03.437Z,2.41
2023-11-24T07:17:26.125Z,2.53
2023-11-24T07:20:50.593Z,2.57
2023-11-24T07:24:13.303Z,2.68
2023-11-24T07:27:37.370Z,2.88
2023-11-24T07:30:59.847Z,2.99
2023-11-24T07:34:22.648Z,3.12
2023-11-24T07:37:45.149Z,3.16
2023-11-24T07:41:09.485Z,3.26
2023-11-24T07:44:33.145Z,3.23
2023-11-24T07:47:55.966Z,3.22
2023-11-24T07:51:18.499Z,3.27
2023-11-24T07:54:41.820Z,3.42
2023-11-24T07:58:07.150Z,3.48
2023-11-24T08:01:31.630Z,3.42
2023-11-24T08:04:55.131Z,3.56
2023-11-24T08:08:17.425Z,3.48
2023-11-24T08:11:39.823Z,3.53
2023-11-24T08:15:02.331Z,3.57
2023-11-24T08:18:26.250Z,3.74
2023-11-24T08:21:48.718Z,3.67
2023-11-24T08:25:11.850Z,3.73
2023-11-24T08:28:34.501Z,3.94
2023-11-24T08:31:58.979Z,3.67
2023-11-24T08:35:22.541Z,4.16
2023-11-24T08:38:45.006Z,4.11
2023-11-24T08:42:08.874Z,4.27
2023-11-24T08:45:31.904Z,4.46
2023-11-24T08:48:55.819Z,4.53
2023-11-24T08:52:20.698Z,4.87
2023-11-24T08:55:43.408Z,4.80
2023-11-24T08:59:09.885Z,5.01
2023-11-24T09:02:32.722Z,5.22
2023-11-24T09:05:58.113Z,5.08
2023-11-24T09:09:22.304Z,5.68
2023-11-24T09:12:45.625Z,6.38
2023-11-24T09:16:08.711Z,6.70
2023-11-24T09:19:36.401Z,7.11
2023-11-24T09:22:59.081Z,7.31
2023-11-24T09:26:23.189Z,7.33
2023-11-24T09:29:45.750Z,9.09
2023-11-24T09:33:09.044Z,10.47
2023-11-24T09:36:31.542Z,10.59
2023-11-24T09:39:54.311Z,11.15
2023-11-24T09:43:18.247Z,10.88
2023-11-24T09:46:52.037Z,11.62
2023-11-24T09:50:16.328Z,12.18
2023-11-24T09:53:39.095Z,12.00
2023-11-24T09:57:01.682Z,10.80
2023-11-24T10:00:27.488Z,9.95
2023-11-24T10:03:52.552Z,9.47
2023-11-24T10:07:19.341Z,10.25
2023-11-24T10:10:42.353Z,12.61
2023-11-24T10:14:06.217Z,12.95
2023-11-24T10:17:34.478Z,12.79
2023-11-24T10:21:00.991Z,13.46
2023-11-24T10:24:29.328Z,12.95
2023-11-24T10:27:56.782Z,13.26
2023-11-24T10:31:19.315Z,12.40
2023-11-24T10:34:43.658Z,10.98
2023-11-24T10:38:06.162Z,10.72
2023-11-24T10:41:28.406Z,9.94
2023-11-24T10:44:56.539Z,9.43
2023-11-24T10:48:22.032Z,9.03
2023-11-24T10:51:50.730Z,8.74
2023-11-24T10:55:15.019Z,8.56
2023-11-24T10:58:38.255Z,8.42
2023-11-24T11:02:02.133Z,8.27
2023-11-24T11:05:27.285Z,8.24
2023-11-24T11:08:59.943Z,8.07
2023-11-24T11:12:32.523Z,8.47
2023-11-24T11:15:56.410Z,8.93
2023-11-24T11:19:31.724Z,9.17
2023-11-24T11:23:01.385Z,8.86
2023-11-24T11:29:57.628Z,8.56
2023-11-24T11:33:21.072Z,8.36
2023-11-24T11:37:02.574Z,8.47
2023-11-24T11:40:27.945Z,8.20
2023-11-24T11:43:59.798Z,8.05
2023-11-24T11:47:25.793Z,7.88
2023-11-24T11:50:51.437Z,7.79
2023-11-24T11:54:14.878Z,7.81
2023-11-24T11:57:37.527Z,7.93
2023-11-24T12:01:00.359Z,7.93
2023-11-24T12:04:24.330Z,7.88
2023-11-24T12:07:49.608Z,8.06
2023-11-24T12:11:14.229Z,7.88
2023-11-24T12:14:39.690Z,7.61
2023-11-24T12:18:02.247Z,7.52
2023-11-24T12:21:26.283Z,7.58
2023-11-24T12:24:48.885Z,7.37
2023-11-24T12:28:13.245Z,7.47
2023-11-24T12:31:40.851Z,7.42
2023-11-24T12:35:04.951Z,7.28
2023-11-24T12:38:29.286Z,7.27
2023-11-24T12:41:51.774Z,7.37
2023-11-24T12:45:14.860Z,7.33
2023-11-24T12:48:40.785Z,7.28
2023-11-24T12:52:03.247Z,7.25
2023-11-24T12:55:27.282Z,7.28
2023-11-24T12:58:51.688Z,7.19
2023-11-24T13:02:14.479Z,7.22
2023-11-24T13:05:39.434Z,7.19
2023-11-24T13:09:01.818Z,7.21
2023-11-24T13:12:27.610Z,7.25
2023-11-24T13:15:50.126Z,7.22
2023-11-24T13:19:14.735Z,7.18
2023-11-24T13:22:40.184Z,7.07
2023-11-24T13:26:05.120Z,7.01
2023-11-24T13:29:28.793Z,7.04
2023-11-24T13:32:51.494Z,6.88
2023-11-24T13:36:16.702Z,6.87
2023-11-24T13:39:39.183Z,6.89
2023-11-24T13:43:01.762Z,6.83
2023-11-24T13:46:25.637Z,6.85
2023-11-24T13:49:48.185Z,6.85
2023-11-24T13:53:14.123Z,6.81
2023-11-24T13:56:36.310Z,6.93
2023-11-24T13:59:59.103Z,6.94
2023-11-24T14:03:22.904Z,6.84
2023-11-24T14:06:47.097Z,6.84
2023-11-24T14:10:10.699Z,6.83
2023-11-24T14:13:33.646Z,6.72
2023-11-24T14:16:57.123Z,6.64
2023-11-24T14:20:21.875Z,6.62
2023-11-24T14:23:44.488Z,6.60
2023-11-24T14:27:14.205Z,6.59
2023-11-24T14:30:39.697Z,6.56
2023-11-24T14:34:02.932Z,6.52
2023-11-24T14:37:26.446Z,6.43
2023-11-24T14:40:50.889Z,6.26
2023-11-24T14:44:13.412Z,6.35
2023-11-24T14:47:38.134Z,6.45
2023-11-24T14:51:00.599Z,6.48
2023-11-24T14:54:27.357Z,6.41
2023-11-24T14:57:49.916Z,6.46
2023-11-24T15:01:12.659Z,6.28
2023-11-24T15:04:35.461Z,6.30
2023-11-24T15:07:58.841Z,6.33
2023-11-24T15:11:34.742Z,6.33
2023-11-24T15:15:00.319Z,6.31
2023-11-24T15:18:22.686Z,6.40
2023-11-24T15:21:45.390Z,6.57
2023-11-24T15:25:09.481Z,6.41
2023-11-24T15:28:34.707Z,6.52
2023-11-24T15:31:57.348Z,6.73
2023-11-24T15:35:19.918Z,6.71
2023-11-24T15:38:42.656Z,6.64
2023-11-24T15:45:32.275Z,6.37
2023-11-24T15:48:54.969Z,6.63
2023-11-24T15:52:17.608Z,6.48
2023-11-24T15:55:44.317Z,6.23
2023-11-24T15:59:08.582Z,6.44
2023-11-24T16:02:33.894Z,6.53
2023-11-24T16:06:01.104Z,6.57
2023-11-24T16:09:25.393Z,6.58
2023-11-24T16:12:52.481Z,6.52
2023-11-24T16:16:15.048Z,6.44
2023-11-24T16:19:40.164Z,6.29
2023-11-24T16:23:02.639Z,6.29
2023-11-24T16:26:25.208Z,5.83
2023-11-24T16:29:47.908Z,5.72
2023-11-24T16:33:10.534Z,5.32
2023-11-24T16:36:36.054Z,5.40
2023-11-24T16:40:00.575Z,5.23
2023-11-24T16:43:23.331Z,5.22
2023-11-24T16:46:58.925Z,5.41
2023-11-24T16:50:21.342Z,5.30
2023-11-24T16:53:45.490Z,5.28
2023-11-24T16:57:11.037Z,5.18
2023-11-24T17:00:34.971Z,5.27
2023-11-24T17:03:59.169Z,5.23
2023-11-24T17:07:21.840Z,5.37
2023-11-24T17:10:46.519Z,5.31
2023-11-24T17:14:09.507Z,5.34
2023-11-24T17:17:31.947Z,5.27
2023-11-24T17:20:54.456Z,5.42
2023-11-24T17:24:19.906Z,5.23
2023-11-24T17:27:45.901Z,5.30
2023-11-24T17:31:09.501Z,5.02
2023-11-24T17:34:33.136Z,5.18
2023-11-24T17:37:55.150Z,5.13
2023-11-24T17:41:17.695Z,5.25
2023-11-24T17:44:41.590Z,5.28
2023-11-24T17:48:08.963Z,5.20
2023-11-24T17:51:33.937Z,5.19
2023-11-24T17:54:56.673Z,5.10
2023-11-24T17:58:19.307Z,4.93
2023-11-24T18:01:44.436Z,5.22
2023-11-24T18:05:09.050Z,4.99
2023-11-24T18:08:34.313Z,5.17
2023-11-24T18:11:57.873Z,5.06
2023-11-24T18:15:21.558Z,5.31
2023-11-24T18:18:48.110Z,5.05
2023-11-24T18:22:13.678Z,5.11
2023-11-24T18:25:40.303Z,5.43
2023-11-24T18:29:05.281Z,5.31
2023-11-24T18:32:30.851Z,4.70
2023-11-24T18:35:56.751Z,5.03
2023-11-24T18:39:22.522Z,4.80
2023-11-24T18:42:47.189Z,4.75
2023-11-24T18:46:11.132Z,4.70
2023-11-24T18:49:34.215Z,4.65
2023-11-24T18:52:59.684Z,4.39
2023-11-24T18:56:27.004Z,4.56
2023-11-24T18:59:52.653Z,4.48
2023-11-24T19:03:18.677Z,4.48
2023-11-24T19:06:46.632Z,4.60
2023-11-24T19:10:16.714Z,4.72
2023-11-24T19:13:43.305Z,4.78
2023-11-24T19:17:08.560Z,4.69
2023-11-24T19:20:34.043Z,4.67
2023-11-24T19:23:59.926Z,4.56
2023-11-24T19:27:27.125Z,4.79
2023-11-24T19:30:53.651Z,4.72
2023-11-24T19:34:18.762Z,4.53
2023-11-24T19:37:43.414Z,4.61
2023-11-24T19:41:08.933Z,4.59
2023-11-24T19:44:35.265Z,4.65
2023-11-24T19:48:03.059Z,4.67
2023-11-24T19:51:27.936Z,4.62
2023-11-24T19:54:53.430Z,4.52
2023-11-24T19:58:19.596Z,4.35
2023-11-24T20:01:49.661Z,4.44
2023-11-24T20:05:15.155Z,4.33
2023-11-24T20:08:40.992Z,4.39
2023-11-24T20:12:07.156Z,4.21
2023-11-24T20:15:32.615Z,4.57
2023-11-24T20:18:59.734Z,4.68
2023-11-24T20:22:24.815Z,4.73
2023-11-24T20:25:50.401Z,4.76
2023-11-24T20:29:15.882Z,4.80
2023-11-24T20:32:42.330Z,4.84
2023-11-24T20:36:13.712Z,4.89
2023-11-24T20:39:40.546Z,4.62
2023-11-24T20:43:07.455Z,4.85
2023-11-24T20:46:33.276Z,4.22
2023-11-24T20:49:58.026Z,4.20
2023-11-24T20:53:24.711Z,4.29
2023-11-24T20:56:49.579Z,4.02
2023-11-24T21:00:14.207Z,4.13
2023-11-24T21:03:37.497Z,4.57
2023-11-24T21:07:01.084Z,4.25
2023-11-24T21:10:27.846Z,4.43
2023-11-24T21:13:50.798Z,4.42
2023-11-24T21:17:13.418Z,4.35
2023-11-24T21:20:36.050Z,4.37
2023-11-24T21:24:01.556Z,4.46
2023-11-24T21:27:27.146Z,3.97
2023-11-24T21:30:49.562Z,4.25
2023-11-24T21:34:12.882Z,4.17
2023-11-24T21:37:35.651Z,4.04
2023-11-24T21:40:58.204Z,4.09
2023-11-24T21:44:22.364Z,4.17
2023-11-24T21:47:45.204Z,3.93
2023-11-24T21:51:08.003Z,3.64
2023-11-24T21:54:30.603Z,3.58
2023-11-24T21:57:54.693Z,3.90
2023-11-24T22:01:21.503Z,3.36
2023-11-24T22:04:44.215Z,3.19
2023-11-24T22:08:07.108Z,2.67
2023-11-24T22:11:29.974Z,3.37
2023-11-24T22:14:52.380Z,3.11
2023-11-24T22:18:16.462Z,2.77
2023-11-24T22:21:39.522Z,3.58
2023-11-24T22:25:02.451Z,3.55
2023-11-24T22:28:26.334Z,3.34
2023-11-24T22:31:49.707Z,3.35
2023-11-24T22:35:13.426Z,3.37
2023-11-24T22:38:36.155Z,3.34
2023-11-24T22:41:58.837Z,3.28
2023-11-24T22:45:21.444Z,2.87
2023-11-24T22:48:44.035Z,3.25
2023-11-24T22:52:08.419Z,3.54
2023-11-24T22:55:31.853Z,3.51
2023-11-24T22:58:56.625Z,3.43
2023-11-24T23:02:22.312Z,3.49
2023-11-24T23:05:47.154Z,3.40
2023-11-24T23:09:11.260Z,3.37
2023-11-24T23:12:33.684Z,3.17
2023-11-24T23:15:56.759Z,3.22
2023-11-24T23:19:20.718Z,3.05
2023-11-24T23:22:44.892Z,3.36
2023-11-24T23:26:09.160Z,3.57
2023-11-24T23:29:31.357Z,3.58
2023-11-24T23:32:56.367Z,3.64
2023-11-24T23:36:24.176Z,3.68
2023-11-24T23:39:46.800Z,3.72
2023-11-24T23:43:10.707Z,3.72
2023-11-24T23:46:33.267Z,3.70
2023-11-24T23:49:55.802Z,3.73
2023-11-24T23:53:22.667Z,3.63
2023-11-24T23:56:45.150Z,3.58
